sensor_id;sensor_type;location;lat;lon;timestamp;P1;durP1;ratioP1;P2;durP2;ratioP2
30888;SDS011;51092;50.874;7.024;2023-11-21T00:00:46;21.08;;;13.32;;
30888;SDS011;51092;50.874;7.024;2023-11-21T00:01:48;26.35;;;14.13;;
30888;SDS011;51092;50.874;7.024;2023-11-21T00:02:50;28.83;;;14.75;;
30888;SDS011;51092;50.874;7.024;2023-11-21T00:03:52;30.00;;;14.77;;
30888;SDS011;51092;50.874;7.024;2023-11-21T00:04:55;22.08;;;13.63;;
30888;SDS011;51092;50.874;7.024;2023-11-21T00:05:56;36.92;;;19.35;;
30888;SDS011;51092;50.874;7.024;2023-11-21T00:06:58;34.15;;;19.08;;
30888;SDS011;51092;50.874;7.024;2023-11-21T00:08:00;29.90;;;15.82;;
30888;SDS011;51092;50.874;7.024;2023-11-21T00:09:03;24.73;;;15.52;;
30888;SDS011;51092;50.874;7.024;2023-11-21T00:10:06;25.40;;;15.05;;
30888;SDS011;51092;50.874;7.024;2023-11-21T00:11:08;25.15;;;16.77;;
30888;SDS011;51092;50.874;7.024;2023-11-21T00:12:11;24.48;;;15.88;;
30888;SDS011;51092;50.874;7.024;2023-11-21T00:13:14;21.45;;;14.98;;
30888;SDS011;51092;50.874;7.024;2023-11-21T00:14:18;20.58;;;15.00;;
30888;SDS011;51092;50.874;7.024;2023-11-21T00:15:20;24.98;;;16.10;;
30888;SDS011;51092;50.874;7.024;2023-11-21T00:16:22;27.10;;;14.68;;
30888;SDS011;51092;50.874;7.024;2023-11-21T00:17:26;24.85;;;14.93;;
30888;SDS011;51092;50.874;7.024;2023-11-21T00:18:27;19.20;;;15.07;;
30888;SDS011;51092;50.874;7.024;2023-11-21T00:19:30;26.20;;;15.40;;
30888;SDS011;51092;50.874;7.024;2023-11-21T00:20:31;24.30;;;16.23;;
30888;SDS011;51092;50.874;7.024;2023-11-21T00:21:33;26.70;;;16.63;;
30888;SDS011;51092;50.874;7.024;2023-11-21T00:22:35;22.58;;;16.30;;
30888;SDS011;51092;50.874;7.024;2023-11-21T00:23:37;22.63;;;15.35;;
30888;SDS011;51092;50.874;7.024;2023-11-21T00:24:40;24.00;;;16.02;;
30888;SDS011;51092;50.874;7.024;2023-11-21T00:25:43;29.58;;;16.95;;
30888;SDS011;51092;50.874;7.024;2023-11-21T00:26:44;22.25;;;15.35;;
30888;SDS011;51092;50.874;7.024;2023-11-21T00:27:49;21.65;;;16.10;;
30888;SDS011;51092;50.874;7.024;2023-11-21T00:28:50;28.23;;;16.25;;
30888;SDS011;51092;50.874;7.024;2023-11-21T00:29:53;25.25;;;16.50;;
30888;SDS011;51092;50.874;7.024;2023-11-21T00:30:54;22.52;;;17.27;;
30888;SDS011;51092;50.874;7.024;2023-11-21T00:31:56;24.63;;;17.70;;
30888;SDS011;51092;50.874;7.024;2023-11-21T00:32:58;25.73;;;17.08;;
30888;SDS011;51092;50.874;7.024;2023-11-21T00:34:00;29.63;;;16.98;;
30888;SDS011;51092;50.874;7.024;2023-11-21T00:35:02;36.97;;;17.05;;
30888;SDS011;51092;50.874;7.024;2023-11-21T00:36:05;34.45;;;16.20;;
30888;SDS011;51092;50.874;7.024;2023-11-21T00:37:10;26.20;;;17.17;;
30888;SDS011;51092;50.874;7.024;2023-11-21T00:38:11;26.88;;;16.33;;
30888;SDS011;51092;50.874;7.024;2023-11-21T00:39:14;25.73;;;14.90;;
30888;SDS011;51092;50.874;7.024;2023-11-21T00:40:17;30.00;;;15.32;;
30888;SDS011;51092;50.874;7.024;2023-11-21T00:41:21;28.98;;;16.88;;
30888;SDS011;51092;50.874;7.024;2023-11-21T00:42:23;24.52;;;16.58;;
30888;SDS011;51092;50.874;7.024;2023-11-21T00:43:25;29.50;;;16.15;;
30888;SDS011;51092;50.874;7.024;2023-11-21T00:44:27;23.35;;;15.85;;
30888;SDS011;51092;50.874;7.024;2023-11-21T00:45:29;25.20;;;16.27;;
30888;SDS011;51092;50.874;7.024;2023-11-21T00:46:31;29.10;;;16.35;;
30888;SDS011;51092;50.874;7.024;2023-11-21T00:47:33;26.73;;;15.85;;
30888;SDS011;51092;50.874;7.024;2023-11-21T00:48:34;26.58;;;15.65;;
30888;SDS011;51092;50.874;7.024;2023-11-21T00:49:37;27.30;;;15.63;;
30888;SDS011;51092;50.874;7.024;2023-11-21T00:50:40;24.58;;;16.35;;
30888;SDS011;51092;50.874;7.024;2023-11-21T00:51:42;28.05;;;16.65;;
30888;SDS011;51092;50.874;7.024;2023-11-21T00:52:44;26.48;;;17.27;;
30888;SDS011;51092;50.874;7.024;2023-11-21T00:53:46;22.70;;;15.07;;
30888;SDS011;51092;50.874;7.024;2023-11-21T00:54:48;24.55;;;15.45;;
30888;SDS011;51092;50.874;7.024;2023-11-21T00:55:51;22.23;;;14.98;;
30888;SDS011;51092;50.874;7.024;2023-11-21T00:56:57;25.95;;;16.73;;
30888;SDS011;51092;50.874;7.024;2023-11-21T00:57:59;24.83;;;14.70;;
30888;SDS011;51092;50.874;7.024;2023-11-21T00:59:04;31.38;;;15.55;;
30888;SDS011;51092;50.874;7.024;2023-11-21T01:00:06;32.10;;;16.98;;
30888;SDS011;51092;50.874;7.024;2023-11-21T01:01:14;22.33;;;17.50;;
30888;SDS011;51092;50.874;7.024;2023-11-21T01:02:15;24.42;;;16.17;;
30888;SDS011;51092;50.874;7.024;2023-11-21T01:03:18;27.63;;;16.58;;
30888;SDS011;51092;50.874;7.024;2023-11-21T01:04:19;30.63;;;16.60;;
30888;SDS011;51092;50.874;7.024;2023-11-21T01:05:22;29.08;;;16.58;;
30888;SDS011;51092;50.874;7.024;2023-11-21T01:06:23;22.77;;;16.48;;
30888;SDS011;51092;50.874;7.024;2023-11-21T01:07:26;25.15;;;15.60;;
30888;SDS011;51092;50.874;7.024;2023-11-21T01:08:27;26.20;;;16.27;;
30888;SDS011;51092;50.874;7.024;2023-11-21T01:09:29;29.00;;;16.33;;
30888;SDS011;51092;50.874;7.024;2023-11-21T01:10:32;25.48;;;16.75;;
30888;SDS011;51092;50.874;7.024;2023-11-21T01:11:36;30.38;;;15.68;;
30888;SDS011;51092;50.874;7.024;2023-11-21T01:12:39;24.02;;;15.90;;
30888;SDS011;51092;50.874;7.024;2023-11-21T01:13:41;32.75;;;16.75;;
30888;SDS011;51092;50.874;7.024;2023-11-21T01:14:45;26.92;;;16.10;;
30888;SDS011;51092;50.874;7.024;2023-11-21T01:15:47;32.05;;;15.73;;
30888;SDS011;51092;50.874;7.024;2023-11-21T01:16:49;25.55;;;16.70;;
30888;SDS011;51092;50.874;7.024;2023-11-21T01:17:51;27.42;;;17.23;;
30888;SDS011;51092;50.874;7.024;2023-11-21T01:18:53;21.48;;;16.85;;
30888;SDS011;51092;50.874;7.024;2023-11-21T01:19:55;27.98;;;17.50;;
30888;SDS011;51092;50.874;7.024;2023-11-21T01:20:58;28.67;;;16.95;;
30888;SDS011;51092;50.874;7.024;2023-11-21T01:22:01;26.65;;;16.50;;
30888;SDS011;51092;50.874;7.024;2023-11-21T01:23:04;22.55;;;16.85;;
30888;SDS011;51092;50.874;7.024;2023-11-21T01:24:06;24.63;;;15.52;;
30888;SDS011;51092;50.874;7.024;2023-11-21T01:25:09;22.02;;;15.57;;
30888;SDS011;51092;50.874;7.024;2023-11-21T01:26:11;25.67;;;16.08;;
30888;SDS011;51092;50.874;7.024;2023-11-21T01:27:14;27.55;;;15.77;;
30888;SDS011;51092;50.874;7.024;2023-11-21T01:28:16;28.60;;;16.98;;
30888;SDS011;51092;50.874;7.024;2023-11-21T01:29:18;26.00;;;16.55;;
30888;SDS011;51092;50.874;7.024;2023-11-21T01:30:20;20.85;;;16.55;;
30888;SDS011;51092;50.874;7.024;2023-11-21T01:31:23;26.25;;;17.67;;
30888;SDS011;51092;50.874;7.024;2023-11-21T01:32:24;32.10;;;17.70;;
30888;SDS011;51092;50.874;7.024;2023-11-21T01:33:26;29.42;;;17.83;;
30888;SDS011;51092;50.874;7.024;2023-11-21T01:34:28;31.95;;;18.55;;
30888;SDS011;51092;50.874;7.024;2023-11-21T01:35:29;28.77;;;17.08;;
30888;SDS011;51092;50.874;7.024;2023-11-21T01:36:31;26.60;;;17.35;;
30888;SDS011;51092;50.874;7.024;2023-11-21T01:37:34;30.45;;;18.83;;
30888;SDS011;51092;50.874;7.024;2023-11-21T01:38:35;27.75;;;17.70;;
30888;SDS011;51092;50.874;7.024;2023-11-21T01:39:38;29.45;;;19.08;;
30888;SDS011;51092;50.874;7.024;2023-11-21T01:40:39;28.55;;;18.92;;
30888;SDS011;51092;50.874;7.024;2023-11-21T01:41:42;30.25;;;18.20;;
30888;SDS011;51092;50.874;7.024;2023-11-21T01:42:46;29.48;;;17.63;;
30888;SDS011;51092;50.874;7.024;2023-11-21T01:43:49;28.17;;;19.73;;
30888;SDS011;51092;50.874;7.024;2023-11-21T01:44:52;33.00;;;20.30;;
30888;SDS011;51092;50.874;7.024;2023-11-21T01:45:55;28.77;;;20.77;;
30888;SDS011;51092;50.874;7.024;2023-11-21T01:46:58;31.70;;;21.35;;
30888;SDS011;51092;50.874;7.024;2023-11-21T01:48:05;33.55;;;22.88;;
30888;SDS011;51092;50.874;7.024;2023-11-21T01:49:07;41.08;;;24.60;;
30888;SDS011;51092;50.874;7.024;2023-11-21T01:50:13;35.33;;;25.50;;
30888;SDS011;51092;50.874;7.024;2023-11-21T01:51:18;32.35;;;24.63;;
30888;SDS011;51092;50.874;7.024;2023-11-21T01:52:19;33.20;;;24.85;;
30888;SDS011;51092;50.874;7.024;2023-11-21T01:53:23;44.30;;;25.70;;
30888;SDS011;51092;50.874;7.024;2023-11-21T01:54:26;37.95;;;26.10;;
30888;SDS011;51092;50.874;7.024;2023-11-21T01:55:31;47.90;;;26.63;;
30888;SDS011;51092;50.874;7.024;2023-11-21T01:56:34;42.08;;;27.90;;
30888;SDS011;51092;50.874;7.024;2023-11-21T01:57:37;43.38;;;28.58;;
30888;SDS011;51092;50.874;7.024;2023-11-21T01:58:40;43.28;;;30.23;;
30888;SDS011;51092;50.874;7.024;2023-11-21T01:59:44;48.95;;;29.38;;
30888;SDS011;51092;50.874;7.024;2023-11-21T02:00:46;40.42;;;28.52;;
30888;SDS011;51092;50.874;7.024;2023-11-21T02:01:51;45.83;;;30.17;;
30888;SDS011;51092;50.874;7.024;2023-11-21T02:02:52;41.95;;;29.20;;
30888;SDS011;51092;50.874;7.024;2023-11-21T02:03:54;44.92;;;29.30;;
30888;SDS011;51092;50.874;7.024;2023-11-21T02:04:56;39.63;;;30.77;;
30888;SDS011;51092;50.874;7.024;2023-11-21T02:05:58;45.05;;;29.38;;
30888;SDS011;51092;50.874;7.024;2023-11-21T02:07:00;41.65;;;30.00;;
30888;SDS011;51092;50.874;7.024;2023-11-21T02:08:02;52.03;;;30.88;;
30888;SDS011;51092;50.874;7.024;2023-11-21T02:09:04;43.90;;;31.23;;
30888;SDS011;51092;50.874;7.024;2023-11-21T02:10:07;49.30;;;32.70;;
30888;SDS011;51092;50.874;7.024;2023-11-21T02:11:09;49.90;;;31.85;;
30888;SDS011;51092;50.874;7.024;2023-11-21T02:12:13;46.20;;;30.83;;
30888;SDS011;51092;50.874;7.024;2023-11-21T02:13:16;49.95;;;31.98;;
30888;SDS011;51092;50.874;7.024;2023-11-21T02:14:19;46.75;;;32.50;;
30888;SDS011;51092;50.874;7.024;2023-11-21T02:15:23;55.03;;;33.80;;
30888;SDS011;51092;50.874;7.024;2023-11-21T02:16:29;48.65;;;33.17;;
30888;SDS011;51092;50.874;7.024;2023-11-21T02:17:32;46.10;;;32.72;;
30888;SDS011;51092;50.874;7.024;2023-11-21T02:18:33;47.38;;;32.60;;
30888;SDS011;51092;50.874;7.024;2023-11-21T02:19:35;46.90;;;32.80;;
30888;SDS011;51092;50.874;7.024;2023-11-21T02:20:37;51.75;;;32.20;;
30888;SDS011;51092;50.874;7.024;2023-11-21T02:21:39;45.05;;;33.45;;
30888;SDS011;51092;50.874;7.024;2023-11-21T02:22:42;43.67;;;32.33;;
30888;SDS011;51092;50.874;7.024;2023-11-21T02:23:45;50.80;;;32.80;;
30888;SDS011;51092;50.874;7.024;2023-11-21T02:24:47;53.08;;;32.00;;
30888;SDS011;51092;50.874;7.024;2023-11-21T02:25:49;52.60;;;32.17;;
30888;SDS011;51092;50.874;7.024;2023-11-21T02:26:50;47.20;;;30.63;;
30888;SDS011;51092;50.874;7.024;2023-11-21T02:27:53;47.53;;;32.35;;
30888;SDS011;51092;50.874;7.024;2023-11-21T02:28:55;45.92;;;32.97;;
30888;SDS011;51092;50.874;7.024;2023-11-21T02:29:59;44.88;;;31.13;;
30888;SDS011;51092;50.874;7.024;2023-11-21T02:31:01;56.30;;;34.13;;
30888;SDS011;51092;50.874;7.024;2023-11-21T02:32:05;51.67;;;35.20;;
30888;SDS011;51092;50.874;7.024;2023-11-21T02:33:08;53.78;;;33.85;;
30888;SDS011;51092;50.874;7.024;2023-11-21T02:34:09;44.60;;;33.65;;
30888;SDS011;51092;50.874;7.024;2023-11-21T02:35:14;47.80;;;33.03;;
30888;SDS011;51092;50.874;7.024;2023-11-21T02:36:16;54.55;;;35.47;;
30888;SDS011;51092;50.874;7.024;2023-11-21T02:37:18;51.88;;;34.83;;
30888;SDS011;51092;50.874;7.024;2023-11-21T02:38:20;43.85;;;33.80;;
30888;SDS011;51092;50.874;7.024;2023-11-21T02:39:24;53.92;;;34.70;;
30888;SDS011;51092;50.874;7.024;2023-11-21T02:40:26;54.28;;;34.75;;
30888;SDS011;51092;50.874;7.024;2023-11-21T02:41:28;54.30;;;34.58;;
30888;SDS011;51092;50.874;7.024;2023-11-21T02:42:30;56.95;;;35.97;;
30888;SDS011;51092;50.874;7.024;2023-11-21T02:43:32;51.25;;;34.33;;
30888;SDS011;51092;50.874;7.024;2023-11-21T02:44:34;49.10;;;32.17;;
30888;SDS011;51092;50.874;7.024;2023-11-21T02:45:37;54.08;;;34.60;;
30888;SDS011;51092;50.874;7.024;2023-11-21T02:46:38;45.50;;;32.92;;
30888;SDS011;51092;50.874;7.024;2023-11-21T02:47:40;54.10;;;34.47;;
30888;SDS011;51092;50.874;7.024;2023-11-21T02:48:43;49.83;;;30.95;;
30888;SDS011;51092;50.874;7.024;2023-11-21T02:49:44;50.33;;;32.55;;
30888;SDS011;51092;50.874;7.024;2023-11-21T02:50:47;53.85;;;34.97;;
30888;SDS011;51092;50.874;7.024;2023-11-21T02:51:48;61.13;;;35.22;;
30888;SDS011;51092;50.874;7.024;2023-11-21T02:52:50;58.25;;;34.83;;
30888;SDS011;51092;50.874;7.024;2023-11-21T02:53:52;59.40;;;36.42;;
30888;SDS011;51092;50.874;7.024;2023-11-21T02:54:55;46.15;;;32.75;;
30888;SDS011;51092;50.874;7.024;2023-11-21T02:55:56;53.90;;;34.90;;
30888;SDS011;51092;50.874;7.024;2023-11-21T02:56:58;55.95;;;34.22;;
30888;SDS011;51092;50.874;7.024;2023-11-21T02:57:59;55.88;;;33.25;;
30888;SDS011;51092;50.874;7.024;2023-11-21T02:59:02;56.58;;;35.45;;
30888;SDS011;51092;50.874;7.024;2023-11-21T03:00:04;57.08;;;33.42;;
30888;SDS011;51092;50.874;7.024;2023-11-21T03:01:13;51.47;;;33.85;;
30888;SDS011;51092;50.874;7.024;2023-11-21T03:02:15;60.97;;;37.25;;
30888;SDS011;51092;50.874;7.024;2023-11-21T03:03:18;40.88;;;28.98;;
30888;SDS011;51092;50.874;7.024;2023-11-21T03:04:19;52.15;;;35.40;;
30888;SDS011;51092;50.874;7.024;2023-11-21T03:05:22;49.10;;;34.10;;
30888;SDS011;51092;50.874;7.024;2023-11-21T03:06:23;45.22;;;30.52;;
30888;SDS011;51092;50.874;7.024;2023-11-21T03:07:25;53.35;;;34.20;;
30888;SDS011;51092;50.874;7.024;2023-11-21T03:08:27;51.58;;;35.80;;
30888;SDS011;51092;50.874;7.024;2023-11-21T03:09:29;58.47;;;36.65;;
30888;SDS011;51092;50.874;7.024;2023-11-21T03:10:32;61.03;;;36.42;;
30888;SDS011;51092;50.874;7.024;2023-11-21T03:11:34;55.92;;;35.33;;
30888;SDS011;51092;50.874;7.024;2023-11-21T03:12:36;65.88;;;37.95;;
30888;SDS011;51092;50.874;7.024;2023-11-21T03:13:38;69.95;;;38.10;;
30888;SDS011;51092;50.874;7.024;2023-11-21T03:14:41;43.72;;;28.60;;
30888;SDS011;51092;50.874;7.024;2023-11-21T03:15:43;51.45;;;35.40;;
30888;SDS011;51092;50.874;7.024;2023-11-21T03:16:45;43.47;;;30.80;;
30888;SDS011;51092;50.874;7.024;2023-11-21T03:17:48;63.45;;;36.50;;
30888;SDS011;51092;50.874;7.024;2023-11-21T03:18:51;59.58;;;36.22;;
30888;SDS011;51092;50.874;7.024;2023-11-21T03:19:53;44.30;;;31.40;;
30888;SDS011;51092;50.874;7.024;2023-11-21T03:20:55;48.83;;;32.92;;
30888;SDS011;51092;50.874;7.024;2023-11-21T03:21:57;64.22;;;35.35;;
30888;SDS011;51092;50.874;7.024;2023-11-21T03:22:59;67.57;;;40.67;;
30888;SDS011;51092;50.874;7.024;2023-11-21T03:24:02;68.15;;;37.85;;
30888;SDS011;51092;50.874;7.024;2023-11-21T03:25:04;57.85;;;39.15;;
30888;SDS011;51092;50.874;7.024;2023-11-21T03:26:11;53.00;;;35.92;;
30888;SDS011;51092;50.874;7.024;2023-11-21T03:27:13;62.00;;;39.42;;
30888;SDS011;51092;50.874;7.024;2023-11-21T03:28:15;62.80;;;42.05;;
30888;SDS011;51092;50.874;7.024;2023-11-21T03:29:17;62.90;;;38.50;;
30888;SDS011;51092;50.874;7.024;2023-11-21T03:30:20;63.55;;;38.50;;
30888;SDS011;51092;50.874;7.024;2023-11-21T03:31:21;66.32;;;41.45;;
30888;SDS011;51092;50.874;7.024;2023-11-21T03:32:23;63.85;;;39.50;;
30888;SDS011;51092;50.874;7.024;2023-11-21T03:33:25;64.53;;;35.22;;
30888;SDS011;51092;50.874;7.024;2023-11-21T03:34:27;65.35;;;39.85;;
30888;SDS011;51092;50.874;7.024;2023-11-21T03:35:32;64.88;;;40.15;;
30888;SDS011;51092;50.874;7.024;2023-11-21T03:36:33;67.70;;;41.15;;
30888;SDS011;51092;50.874;7.024;2023-11-21T03:37:35;56.17;;;34.13;;
30888;SDS011;51092;50.874;7.024;2023-11-21T03:38:39;64.13;;;40.50;;
30888;SDS011;51092;50.874;7.024;2023-11-21T03:39:40;70.57;;;41.53;;
30888;SDS011;51092;50.874;7.024;2023-11-21T03:40:42;58.53;;;39.50;;
30888;SDS011;51092;50.874;7.024;2023-11-21T03:41:46;50.83;;;33.28;;
30888;SDS011;51092;50.874;7.024;2023-11-21T03:42:47;61.40;;;39.05;;
30888;SDS011;51092;50.874;7.024;2023-11-21T03:43:51;61.65;;;39.70;;
30888;SDS011;51092;50.874;7.024;2023-11-21T03:44:52;45.63;;;32.60;;
30888;SDS011;51092;50.874;7.024;2023-11-21T03:45:53;51.72;;;32.83;;
30888;SDS011;51092;50.874;7.024;2023-11-21T03:46:56;51.85;;;36.42;;
30888;SDS011;51092;50.874;7.024;2023-11-21T03:47:57;62.42;;;39.22;;
30888;SDS011;51092;50.874;7.024;2023-11-21T03:49:02;70.57;;;40.95;;
30888;SDS011;51092;50.874;7.024;2023-11-21T03:50:04;63.60;;;38.67;;
30888;SDS011;51092;50.874;7.024;2023-11-21T03:51:07;38.50;;;28.98;;
30888;SDS011;51092;50.874;7.024;2023-11-21T03:52:08;64.72;;;37.90;;
30888;SDS011;51092;50.874;7.024;2023-11-21T03:53:10;72.00;;;42.08;;
30888;SDS011;51092;50.874;7.024;2023-11-21T03:54:13;66.53;;;38.13;;
30888;SDS011;51092;50.874;7.024;2023-11-21T03:55:15;52.78;;;35.17;;
30888;SDS011;51092;50.874;7.024;2023-11-21T03:56:17;50.08;;;32.40;;
30888;SDS011;51092;50.874;7.024;2023-11-21T03:57:20;55.95;;;34.00;;
30888;SDS011;51092;50.874;7.024;2023-11-21T03:58:24;43.72;;;30.95;;
30888;SDS011;51092;50.874;7.024;2023-11-21T03:59:26;50.00;;;32.20;;
30888;SDS011;51092;50.874;7.024;2023-11-21T04:00:28;58.22;;;36.38;;
30888;SDS011;51092;50.874;7.024;2023-11-21T04:01:30;79.18;;;41.63;;
30888;SDS011;51092;50.874;7.024;2023-11-21T04:02:32;57.75;;;36.72;;
30888;SDS011;51092;50.874;7.024;2023-11-21T04:03:34;49.38;;;32.30;;
30888;SDS011;51092;50.874;7.024;2023-11-21T04:04:36;52.70;;;34.47;;
30888;SDS011;51092;50.874;7.024;2023-11-21T04:05:38;39.90;;;27.42;;
30888;SDS011;51092;50.874;7.024;2023-11-21T04:06:41;39.13;;;28.75;;
30888;SDS011;51092;50.874;7.024;2023-11-21T04:07:43;39.90;;;28.48;;
30888;SDS011;51092;50.874;7.024;2023-11-21T04:08:45;52.03;;;35.38;;
30888;SDS011;51092;50.874;7.024;2023-11-21T04:09:47;41.95;;;28.60;;
30888;SDS011;51092;50.874;7.024;2023-11-21T04:10:48;49.88;;;30.38;;
30888;SDS011;51092;50.874;7.024;2023-11-21T04:11:51;65.40;;;37.65;;
30888;SDS011;51092;50.874;7.024;2023-11-21T04:12:54;71.10;;;37.88;;
30888;SDS011;51092;50.874;7.024;2023-11-21T04:13:56;36.35;;;25.38;;
30888;SDS011;51092;50.874;7.024;2023-11-21T04:14:57;72.05;;;36.65;;
30888;SDS011;51092;50.874;7.024;2023-11-21T04:15:58;63.17;;;36.67;;
30888;SDS011;51092;50.874;7.024;2023-11-21T04:17:03;42.17;;;28.40;;
30888;SDS011;51092;50.874;7.024;2023-11-21T04:18:04;35.53;;;26.33;;
30888;SDS011;51092;50.874;7.024;2023-11-21T04:19:07;52.95;;;32.75;;
30888;SDS011;51092;50.874;7.024;2023-11-21T04:20:11;34.83;;;26.02;;
30888;SDS011;51092;50.874;7.024;2023-11-21T04:21:13;39.55;;;26.20;;
30888;SDS011;51092;50.874;7.024;2023-11-21T04:22:15;52.63;;;32.53;;
30888;SDS011;51092;50.874;7.024;2023-11-21T04:23:16;73.70;;;39.50;;
30888;SDS011;51092;50.874;7.024;2023-11-21T04:24:19;73.70;;;39.40;;
30888;SDS011;51092;50.874;7.024;2023-11-21T04:25:20;69.15;;;38.78;;
30888;SDS011;51092;50.874;7.024;2023-11-21T04:26:24;83.50;;;41.15;;
30888;SDS011;51092;50.874;7.024;2023-11-21T04:27:25;72.65;;;41.22;;
30888;SDS011;51092;50.874;7.024;2023-11-21T04:28:29;74.13;;;41.10;;
30888;SDS011;51092;50.874;7.024;2023-11-21T04:29:30;74.25;;;40.42;;
30888;SDS011;51092;50.874;7.024;2023-11-21T04:30:33;76.70;;;41.08;;
30888;SDS011;51092;50.874;7.024;2023-11-21T04:31:34;73.45;;;41.58;;
30888;SDS011;51092;50.874;7.024;2023-11-21T04:32:37;78.57;;;42.00;;
30888;SDS011;51092;50.874;7.024;2023-11-21T04:33:39;78.22;;;41.90;;
30888;SDS011;51092;50.874;7.024;2023-11-21T04:34:41;55.17;;;36.75;;
30888;SDS011;51092;50.874;7.024;2023-11-21T04:35:43;81.63;;;43.47;;
30888;SDS011;51092;50.874;7.024;2023-11-21T04:36:45;62.85;;;38.42;;
30888;SDS011;51092;50.874;7.024;2023-11-21T04:37:47;70.60;;;41.65;;
30888;SDS011;51092;50.874;7.024;2023-11-21T04:38:49;76.68;;;40.50;;
30888;SDS011;51092;50.874;7.024;2023-11-21T04:39:50;54.60;;;34.97;;
30888;SDS011;51092;50.874;7.024;2023-11-21T04:40:52;43.75;;;30.13;;
30888;SDS011;51092;50.874;7.024;2023-11-21T04:41:54;44.20;;;28.60;;
30888;SDS011;51092;50.874;7.024;2023-11-21T04:42:56;50.22;;;34.72;;
30888;SDS011;51092;50.874;7.024;2023-11-21T04:43:59;48.97;;;33.28;;
30888;SDS011;51092;50.874;7.024;2023-11-21T04:45:02;47.55;;;28.45;;
30888;SDS011;51092;50.874;7.024;2023-11-21T04:46:08;54.08;;;35.25;;
30888;SDS011;51092;50.874;7.024;2023-11-21T04:47:11;37.28;;;27.27;;
30888;SDS011;51092;50.874;7.024;2023-11-21T04:48:13;45.83;;;30.40;;
30888;SDS011;51092;50.874;7.024;2023-11-21T04:49:17;42.75;;;29.17;;
30888;SDS011;51092;50.874;7.024;2023-11-21T04:50:18;38.33;;;26.52;;
30888;SDS011;51092;50.874;7.024;2023-11-21T04:51:21;42.58;;;28.48;;
30888;SDS011;51092;50.874;7.024;2023-11-21T04:52:22;38.67;;;27.75;;
30888;SDS011;51092;50.874;7.024;2023-11-21T04:53:25;36.92;;;25.45;;
30888;SDS011;51092;50.874;7.024;2023-11-21T04:54:26;41.92;;;28.15;;
30888;SDS011;51092;50.874;7.024;2023-11-21T04:55:28;43.78;;;29.05;;
30888;SDS011;51092;50.874;7.024;2023-11-21T04:56:30;44.17;;;27.58;;
30888;SDS011;51092;50.874;7.024;2023-11-21T04:57:32;35.30;;;25.65;;
30888;SDS011;51092;50.874;7.024;2023-11-21T04:58:34;36.08;;;25.88;;
30888;SDS011;51092;50.874;7.024;2023-11-21T04:59:38;39.10;;;25.90;;
30888;SDS011;51092;50.874;7.024;2023-11-21T05:00:40;41.15;;;25.20;;
30888;SDS011;51092;50.874;7.024;2023-11-21T05:01:41;37.83;;;26.58;;
30888;SDS011;51092;50.874;7.024;2023-11-21T05:02:44;43.00;;;28.55;;
30888;SDS011;51092;50.874;7.024;2023-11-21T05:03:45;37.45;;;25.95;;
30888;SDS011;51092;50.874;7.024;2023-11-21T05:04:47;63.25;;;36.45;;
30888;SDS011;51092;50.874;7.024;2023-11-21T05:05:49;68.40;;;38.58;;
30888;SDS011;51092;50.874;7.024;2023-11-21T05:06:51;39.15;;;27.77;;
30888;SDS011;51092;50.874;7.024;2023-11-21T05:07:53;46.70;;;29.63;;
30888;SDS011;51092;50.874;7.024;2023-11-21T05:08:55;40.30;;;26.08;;
30888;SDS011;51092;50.874;7.024;2023-11-21T05:09:57;62.95;;;36.55;;
30888;SDS011;51092;50.874;7.024;2023-11-21T05:10:59;43.20;;;28.10;;
30888;SDS011;51092;50.874;7.024;2023-11-21T05:12:00;44.03;;;27.38;;
30888;SDS011;51092;50.874;7.024;2023-11-21T05:13:05;54.67;;;32.42;;
30888;SDS011;51092;50.874;7.024;2023-11-21T05:14:10;37.72;;;27.63;;
30888;SDS011;51092;50.874;7.024;2023-11-21T05:15:15;33.97;;;25.40;;
30888;SDS011;51092;50.874;7.024;2023-11-21T05:16:18;38.35;;;26.10;;
30888;SDS011;51092;50.874;7.024;2023-11-21T05:17:19;37.20;;;26.25;;
30888;SDS011;51092;50.874;7.024;2023-11-21T05:18:23;37.03;;;25.67;;
30888;SDS011;51092;50.874;7.024;2023-11-21T05:19:27;39.75;;;23.35;;
30888;SDS011;51092;50.874;7.024;2023-11-21T05:20:30;38.03;;;26.05;;
30888;SDS011;51092;50.874;7.024;2023-11-21T05:21:31;28.05;;;23.35;;
30888;SDS011;51092;50.874;7.024;2023-11-21T05:22:34;41.50;;;26.10;;
30888;SDS011;51092;50.874;7.024;2023-11-21T05:23:35;46.83;;;26.73;;
30888;SDS011;51092;50.874;7.024;2023-11-21T05:24:38;40.65;;;26.45;;
30888;SDS011;51092;50.874;7.024;2023-11-21T05:25:39;39.85;;;24.98;;
30888;SDS011;51092;50.874;7.024;2023-11-21T05:26:43;35.45;;;24.88;;
30888;SDS011;51092;50.874;7.024;2023-11-21T05:27:44;43.35;;;28.00;;
30888;SDS011;51092;50.874;7.024;2023-11-21T05:28:47;64.40;;;36.25;;
30888;SDS011;51092;50.874;7.024;2023-11-21T05:29:48;59.30;;;35.90;;
30888;SDS011;51092;50.874;7.024;2023-11-21T05:30:51;43.03;;;29.75;;
30888;SDS011;51092;50.874;7.024;2023-11-21T05:31:54;50.55;;;32.63;;
30888;SDS011;51092;50.874;7.024;2023-11-21T05:32:58;70.28;;;38.20;;
30888;SDS011;51092;50.874;7.024;2023-11-21T05:34:00;78.07;;;39.90;;
30888;SDS011;51092;50.874;7.024;2023-11-21T05:35:02;69.05;;;40.25;;
30888;SDS011;51092;50.874;7.024;2023-11-21T05:36:04;65.68;;;37.80;;
30888;SDS011;51092;50.874;7.024;2023-11-21T05:37:08;42.50;;;28.08;;
30888;SDS011;51092;50.874;7.024;2023-11-21T05:38:10;35.97;;;27.00;;
30888;SDS011;51092;50.874;7.024;2023-11-21T05:39:12;56.92;;;32.97;;
30888;SDS011;51092;50.874;7.024;2023-11-21T05:40:14;44.75;;;26.25;;
30888;SDS011;51092;50.874;7.024;2023-11-21T05:41:17;37.88;;;26.13;;
30888;SDS011;51092;50.874;7.024;2023-11-21T05:42:18;32.70;;;23.83;;
30888;SDS011;51092;50.874;7.024;2023-11-21T05:43:21;35.55;;;24.58;;
30888;SDS011;51092;50.874;7.024;2023-11-21T05:44:23;35.10;;;23.38;;
30888;SDS011;51092;50.874;7.024;2023-11-21T05:45:25;32.72;;;24.23;;
30888;SDS011;51092;50.874;7.024;2023-11-21T05:46:28;40.55;;;26.23;;
30888;SDS011;51092;50.874;7.024;2023-11-21T05:47:30;38.58;;;26.90;;
30888;SDS011;51092;50.874;7.024;2023-11-21T05:48:32;35.00;;;24.73;;
30888;SDS011;51092;50.874;7.024;2023-11-21T05:49:34;33.40;;;24.02;;
30888;SDS011;51092;50.874;7.024;2023-11-21T05:50:36;49.97;;;29.35;;
30888;SDS011;51092;50.874;7.024;2023-11-21T05:51:41;37.15;;;24.75;;
30888;SDS011;51092;50.874;7.024;2023-11-21T05:52:43;42.30;;;27.60;;
30888;SDS011;51092;50.874;7.024;2023-11-21T05:53:45;39.17;;;27.38;;
30888;SDS011;51092;50.874;7.024;2023-11-21T05:54:46;37.92;;;27.02;;
30888;SDS011;51092;50.874;7.024;2023-11-21T05:55:48;38.92;;;25.35;;
30888;SDS011;51092;50.874;7.024;2023-11-21T05:56:49;38.78;;;25.63;;
30888;SDS011;51092;50.874;7.024;2023-11-21T05:57:52;37.42;;;24.48;;
30888;SDS011;51092;50.874;7.024;2023-11-21T05:58:53;53.33;;;32.03;;
30888;SDS011;51092;50.874;7.024;2023-11-21T05:59:55;31.50;;;24.35;;
30888;SDS011;51092;50.874;7.024;2023-11-21T06:00:56;33.17;;;23.90;;
30888;SDS011;51092;50.874;7.024;2023-11-21T06:02:00;42.05;;;24.50;;
30888;SDS011;51092;50.874;7.024;2023-11-21T06:03:03;32.08;;;23.20;;
30888;SDS011;51092;50.874;7.024;2023-11-21T06:04:07;41.40;;;27.25;;
30888;SDS011;51092;50.874;7.024;2023-11-21T06:05:10;47.67;;;28.35;;